createdAt,value
2018-03-11T00:00:03.473Z,995.10
2018-03-11T00:02:05.157Z,995.12
2018-03-11T00:04:06.789Z,995.11
2018-03-11T00:06:08.581Z,995.11
2018-03-11T00:08:10.352Z,995.14
2018-03-11T00:10:12.118Z,995.17
2018-03-11T00:12:13.886Z,995.17
2018-03-11T00:14:15.503Z,995.18
2018-03-11T00:16:17.221Z,995.22
2018-03-11T00:18:18.845Z,995.24
2018-03-11T00:20:20.545Z,995.26
2018-03-11T00:22:22.162Z,995.28
2018-03-11T00:24:23.905Z,995.29
2018-03-11T00:26:26.267Z,995.39
2018-03-11T00:28:27.940Z,995.38
2018-03-11T00:30:29.682Z,995.38
2018-03-11T00:32:32.062Z,995.39
2018-03-11T00:34:33.826Z,995.38
2018-03-11T00:36:35.486Z,995.35
2018-03-11T00:38:38.116Z,995.35
2018-03-11T00:40:40.526Z,995.33
2018-03-11T00:42:42.256Z,995.24
2018-03-11T00:44:43.903Z,995.27
2018-03-11T00:46:45.624Z,995.25
2018-03-11T00:48:47.915Z,995.26
2018-03-11T00:50:49.697Z,995.22
2018-03-11T00:52:52.124Z,995.21
2018-03-11T00:54:53.924Z,995.20
2018-03-11T00:56:56.089Z,995.23
2018-03-11T00:58:58.054Z,995.20
2018-03-11T01:01:00.041Z,995.20
2018-03-11T01:03:01.941Z,995.22
2018-03-11T01:05:04.577Z,995.27
2018-03-11T01:07:06.342Z,995.24
2018-03-11T01:09:08.182Z,995.20
2018-03-11T01:11:09.999Z,995.19
2018-03-11T01:13:11.885Z,995.12
2018-03-11T01:15:13.692Z,995.14
2018-03-11T01:17:15.349Z,995.14
2018-03-11T01:19:17.005Z,995.09
2018-03-11T01:21:18.751Z,995.11
2018-03-11T01:23:20.464Z,995.05
2018-03-11T01:25:22.090Z,995.01
2018-03-11T01:27:23.795Z,994.96
2018-03-11T01:29:26.199Z,994.92
2018-03-11T01:31:27.865Z,994.90
2018-03-11T01:33:29.609Z,994.82
2018-03-11T01:35:31.255Z,994.82
2018-03-11T01:37:32.961Z,994.87
2018-03-11T01:39:34.648Z,994.83
2018-03-11T01:41:37.056Z,994.77
2018-03-11T01:43:38.603Z,994.70
2018-03-11T01:45:40.251Z,994.68
2018-03-11T01:47:41.928Z,994.65
2018-03-11T01:49:44.488Z,994.66
2018-03-11T01:51:46.988Z,994.64
2018-03-11T01:53:49.293Z,994.65
2018-03-11T01:55:51.021Z,994.61
2018-03-11T01:57:52.741Z,994.58
2018-03-11T01:59:54.406Z,994.57
2018-03-11T02:01:56.075Z,994.52
2018-03-11T02:03:58.687Z,994.47
2018-03-11T02:06:00.964Z,994.41
2018-03-11T02:08:02.634Z,994.38
2018-03-11T02:10:04.399Z,994.37
2018-03-11T02:12:06.082Z,994.32
2018-03-11T02:14:07.773Z,994.26
2018-03-11T02:16:09.491Z,994.22
2018-03-11T02:18:11.858Z,994.17
2018-03-11T02:20:13.429Z,994.15
2018-03-11T02:22:15.161Z,994.11
2018-03-11T02:24:16.855Z,994.11
2018-03-11T02:26:19.369Z,994.11
2018-03-11T02:28:21.767Z,994.09
2018-03-11T02:30:24.043Z,994.07
2018-03-11T02:32:25.868Z,994.04
2018-03-11T02:34:27.481Z,994.05
2018-03-11T02:36:29.211Z,994.03
2018-03-11T02:38:30.908Z,993.97
2018-03-11T02:40:32.629Z,994.03
2018-03-11T02:42:34.335Z,993.98
2018-03-11T02:44:36.146Z,993.98
2018-03-11T02:46:38.564Z,993.91
2018-03-11T02:48:40.252Z,993.82
2018-03-11T02:50:41.946Z,993.76
2018-03-11T02:52:43.619Z,993.73
2018-03-11T02:54:45.293Z,993.72
2018-03-11T02:56:47.665Z,993.68
2018-03-11T02:58:49.458Z,993.64
2018-03-11T03:00:51.156Z,993.62
2018-03-11T03:02:52.951Z,993.64
2018-03-11T03:04:54.586Z,993.69
2018-03-11T03:06:56.266Z,993.66
2018-03-11T03:08:58.775Z,993.72
2018-03-11T03:11:00.590Z,993.70
2018-03-11T03:13:02.356Z,993.64
2018-03-11T03:15:04.071Z,993.68
2018-03-11T03:17:05.829Z,993.58
2018-03-11T03:19:07.466Z,993.53
2018-03-11T03:21:09.730Z,993.52
2018-03-11T03:23:11.417Z,993.48
2018-03-11T03:25:13.156Z,993.51
2018-03-11T03:27:14.882Z,993.56
2018-03-11T03:29:16.561Z,993.53
2018-03-11T03:31:18.940Z,993.51
2018-03-11T03:33:20.567Z,993.47
2018-03-11T03:35:22.234Z,993.48
2018-03-11T03:37:24.733Z,993.47
2018-03-11T03:39:26.930Z,993.51
2018-03-11T03:41:28.517Z,993.54
2018-03-11T03:43:30.182Z,993.53
2018-03-11T03:45:31.954Z,993.53
2018-03-11T03:47:33.602Z,993.48
2018-03-11T03:49:35.290Z,993.44
2018-03-11T03:51:37.012Z,993.43
2018-03-11T03:53:38.624Z,993.42
2018-03-11T03:55:40.967Z,993.44
2018-03-11T03:57:43.234Z,993.41
2018-03-11T03:59:44.918Z,993.38
2018-03-11T04:01:46.966Z,993.30
2018-03-11T04:03:48.751Z,993.25
2018-03-11T04:05:50.353Z,993.24
2018-03-11T04:07:52.712Z,993.20
2018-03-11T04:09:55.110Z,993.11
2018-03-11T04:11:56.837Z,993.11
2018-03-11T04:13:58.546Z,993.09
2018-03-11T04:16:00.212Z,993.06
2018-03-11T04:18:01.960Z,993.00
2018-03-11T04:20:03.667Z,992.95
2018-03-11T04:22:05.289Z,992.90
2018-03-11T04:24:06.942Z,992.93
2018-03-11T04:26:08.635Z,992.91
2018-03-11T04:28:10.267Z,992.82
2018-03-11T04:30:11.929Z,992.73
2018-03-11T04:32:14.437Z,992.72
2018-03-11T04:34:16.111Z,992.74
2018-03-11T04:36:17.797Z,992.74
2018-03-11T04:38:19.468Z,992.68
2018-03-11T04:40:21.068Z,992.70
2018-03-11T04:42:22.788Z,992.66
2018-03-11T04:44:24.414Z,992.64
2018-03-11T04:46:26.087Z,992.61
2018-03-11T04:48:27.902Z,992.62
2018-03-11T04:50:29.658Z,992.58
2018-03-11T04:52:31.418Z,992.57
2018-03-11T04:54:33.103Z,992.54
2018-03-11T04:56:34.805Z,992.51
2018-03-11T04:58:36.469Z,992.45
2018-03-11T05:00:38.766Z,992.40
2018-03-11T05:02:41.150Z,992.45
2018-03-11T05:04:43.382Z,992.44
2018-03-11T05:06:44.974Z,992.47
2018-03-11T05:08:46.736Z,992.41
2018-03-11T05:10:48.495Z,992.42
2018-03-11T05:12:50.174Z,992.42
2018-03-11T05:14:51.899Z,992.39
2018-03-11T05:16:54.286Z,992.41
2018-03-11T05:18:55.971Z,992.37
2018-03-11T05:20:57.606Z,992.34
2018-03-11T05:23:00.110Z,992.30
2018-03-11T05:25:01.764Z,992.27
2018-03-11T05:27:04.231Z,992.19
2018-03-11T05:29:06.575Z,992.09
2018-03-11T05:31:08.159Z,992.02
2018-03-11T05:33:09.818Z,992.08
2018-03-11T05:35:11.439Z,992.16
2018-03-11T05:37:13.777Z,992.22
2018-03-11T05:39:15.411Z,992.18
2018-03-11T05:41:17.152Z,992.13
2018-03-11T05:43:19.761Z,992.03
2018-03-11T05:45:21.486Z,991.90
2018-03-11T05:47:23.090Z,991.78
2018-03-11T05:49:25.530Z,991.78
2018-03-11T05:51:27.183Z,991.80
2018-03-11T05:53:28.812Z,991.79
2018-03-11T05:55:30.483Z,991.80
2018-03-11T05:57:32.185Z,991.79
2018-03-11T05:59:33.825Z,991.75
2018-03-11T06:01:35.590Z,991.67
2018-03-11T06:03:37.389Z,991.69
2018-03-11T06:05:39.110Z,991.65
2018-03-11T06:07:40.896Z,991.62
2018-03-11T06:09:42.595Z,991.57
2018-03-11T06:11:44.292Z,991.52
2018-03-11T06:13:46.752Z,991.47
2018-03-11T06:15:48.392Z,991.47
2018-03-11T06:17:50.153Z,991.49
2018-03-11T06:19:52.443Z,991.45
2018-03-11T06:21:54.829Z,991.36
2018-03-11T06:23:56.524Z,991.34
2018-03-11T06:25:58.935Z,991.31
2018-03-11T06:28:01.351Z,991.36
2018-03-11T06:30:03.067Z,991.42
2018-03-11T06:32:05.565Z,991.41
2018-03-11T06:34:07.833Z,991.38
2018-03-11T06:36:10.117Z,991.29
2018-03-11T06:38:12.366Z,991.20
2018-03-11T06:40:14.079Z,991.21
2018-03-11T06:42:15.752Z,991.20
2018-03-11T06:44:17.786Z,991.23
2018-03-11T06:46:19.499Z,991.19
2018-03-11T06:48:21.267Z,991.19
2018-03-11T06:50:22.981Z,991.19
2018-03-11T06:52:24.734Z,991.18
2018-03-11T06:54:26.524Z,991.17
2018-03-11T06:56:28.304Z,991.12
2018-03-11T06:58:30.073Z,991.15
2018-03-11T07:00:31.740Z,991.18
2018-03-11T07:02:33.564Z,991.18
2018-03-11T07:04:35.388Z,991.17
2018-03-11T07:06:37.100Z,991.19
2018-03-11T07:08:38.800Z,991.19
2018-03-11T07:10:40.548Z,991.09
2018-03-11T07:12:42.933Z,991.04
2018-03-11T07:14:44.696Z,991.06
2018-03-11T07:16:46.425Z,991.04
2018-03-11T07:18:48.151Z,990.92
2018-03-11T07:20:50.552Z,990.88
2018-03-11T07:22:52.881Z,990.95
2018-03-11T07:24:54.701Z,991.02
2018-03-11T07:26:57.038Z,991.00
2018-03-11T07:28:58.862Z,990.98
2018-03-11T07:31:01.167Z,991.10
2018-03-11T07:33:02.977Z,991.04
2018-03-11T07:35:04.715Z,990.93
2018-03-11T07:37:06.414Z,990.89
2018-03-11T07:39:09.308Z,990.86
2018-03-11T07:41:11.065Z,990.84
2018-03-11T07:43:12.811Z,990.79
2018-03-11T07:45:14.525Z,990.70
2018-03-11T07:47:16.319Z,990.69
2018-03-11T07:49:17.972Z,990.63
2018-03-11T07:51:19.645Z,990.66
2018-03-11T07:53:21.330Z,990.75
2018-03-11T07:55:23.082Z,990.83
2018-03-11T07:57:24.768Z,990.83
2018-03-11T07:59:26.531Z,990.72
2018-03-11T08:01:28.277Z,990.71
2018-03-11T08:03:29.989Z,990.75
2018-03-11T08:05:33.677Z,990.73
2018-03-11T08:07:35.941Z,990.64
2018-03-11T08:09:37.603Z,990.63
2018-03-11T08:11:39.327Z,990.65
2018-03-11T08:13:42.680Z,990.66
2018-03-11T08:15:44.978Z,990.62
2018-03-11T08:17:48.095Z,990.57
2018-03-11T08:19:49.754Z,990.56
2018-03-11T08:21:52.330Z,990.52
2018-03-11T08:23:54.058Z,990.51
2018-03-11T08:25:55.922Z,990.47
2018-03-11T08:27:57.744Z,990.44
2018-03-11T08:29:59.566Z,990.46
2018-03-11T08:32:01.219Z,990.53
2018-03-11T08:34:03.346Z,990.51
2018-03-11T08:36:07.638Z,990.54
2018-03-11T08:38:11.729Z,990.53
2018-03-11T08:40:16.288Z,990.54
2018-03-11T08:42:18.100Z,990.53
2018-03-11T08:44:20.503Z,990.49
2018-03-11T08:46:23.340Z,990.53
2018-03-11T08:48:25.692Z,990.57
2018-03-11T08:50:28.215Z,990.54
2018-03-11T08:52:30.937Z,990.49
2018-03-11T08:54:33.784Z,990.49
2018-03-11T08:56:36.435Z,990.46
2018-03-11T08:58:40.265Z,990.43
2018-03-11T09:00:42.062Z,990.39
2018-03-11T09:02:45.854Z,990.40
2018-03-11T09:04:48.351Z,990.41
2018-03-11T09:06:51.116Z,990.31
2018-03-11T09:08:52.477Z,990.33
2018-03-11T09:10:54.169Z,990.39
2018-03-11T09:12:55.774Z,990.38
2018-03-11T09:14:58.578Z,990.38
2018-03-11T09:17:00.881Z,990.36
2018-03-11T09:19:03.119Z,990.34
2018-03-11T09:21:05.328Z,990.31
2018-03-11T09:23:08.532Z,990.23
2018-03-11T09:25:10.309Z,990.24
2018-03-11T09:27:12.846Z,990.26
2018-03-11T09:29:14.570Z,990.26
2018-03-11T09:31:16.303Z,990.18
2018-03-11T09:33:22.752Z,990.20
2018-03-11T09:35:24.993Z,990.20
2018-03-11T09:37:26.666Z,990.25
2018-03-11T09:39:28.681Z,990.24
2018-03-11T09:41:30.538Z,990.30
2018-03-11T09:43:32.230Z,990.30
2018-03-11T09:45:34.305Z,990.31
2018-03-11T09:47:35.958Z,990.26
2018-03-11T09:49:37.640Z,990.28
2018-03-11T09:51:39.300Z,990.22
2018-03-11T09:53:41.492Z,990.18
2018-03-11T09:55:43.624Z,990.23
2018-03-11T09:57:45.767Z,990.29
2018-03-11T09:59:47.421Z,990.34
2018-03-11T10:01:49.134Z,990.25
2018-03-11T10:03:51.230Z,990.24
2018-03-11T10:05:53.654Z,990.16
2018-03-11T10:07:55.340Z,990.10
2018-03-11T10:09:57.268Z,990.12
2018-03-11T10:11:58.968Z,990.00
2018-03-11T10:14:01.081Z,989.94
2018-03-11T10:16:02.818Z,990.01
2018-03-11T10:18:04.657Z,989.92
2018-03-11T10:20:06.593Z,989.98
2018-03-11T10:22:08.251Z,989.91
2018-03-11T10:24:10.522Z,989.98
2018-03-11T10:26:12.974Z,989.83
2018-03-11T10:28:14.791Z,989.89
2018-03-11T10:30:16.551Z,989.82
2018-03-11T10:32:18.926Z,989.78
2018-03-11T10:34:20.614Z,989.77
2018-03-11T10:36:22.670Z,989.73
2018-03-11T10:38:24.392Z,989.69
2018-03-11T10:40:26.243Z,989.73
2018-03-11T10:42:27.930Z,989.73
2018-03-11T10:44:29.659Z,989.67
2018-03-11T10:46:31.368Z,989.65
2018-03-11T10:48:33.034Z,989.59
2018-03-11T10:50:34.819Z,989.64
2018-03-11T10:52:36.664Z,989.62
2018-03-11T10:54:38.368Z,989.62
2018-03-11T10:56:40.042Z,989.59
2018-03-11T10:58:41.834Z,989.62
2018-03-11T11:00:43.462Z,989.60
2018-03-11T11:02:45.140Z,989.53
2018-03-11T11:04:46.823Z,989.49
2018-03-11T11:06:48.484Z,989.51
2018-03-11T11:08:50.288Z,989.50
2018-03-11T11:10:52.420Z,989.49
2018-03-11T11:12:54.688Z,989.44
2018-03-11T11:14:56.771Z,989.37
2018-03-11T11:16:58.541Z,989.39
2018-03-11T11:19:00.169Z,989.34
2018-03-11T11:21:01.924Z,989.32
2018-03-11T11:23:04.020Z,989.26
2018-03-11T11:25:05.688Z,989.24
2018-03-11T11:27:07.942Z,989.20
2018-03-11T11:29:09.719Z,989.16
2018-03-11T11:31:11.871Z,989.13
2018-03-11T11:33:14.027Z,989.14
2018-03-11T11:35:15.841Z,989.17
2018-03-11T11:37:17.637Z,989.13
2018-03-11T11:39:19.226Z,989.16
2018-03-11T11:41:20.882Z,989.08
2018-03-11T11:43:22.552Z,989.08
2018-03-11T11:45:24.811Z,989.07
2018-03-11T11:47:26.518Z,989.03
2018-03-11T11:49:28.646Z,989.03
2018-03-11T11:51:30.340Z,989.03
2018-03-11T11:53:31.994Z,989.07
2018-03-11T11:55:33.752Z,989.04
2018-03-11T11:57:35.508Z,988.96
2018-03-11T11:59:37.650Z,989.02
2018-03-11T12:01:39.829Z,988.98
2018-03-11T12:03:41.572Z,988.95
2018-03-11T12:05:43.284Z,988.98
2018-03-11T12:07:45.004Z,988.95
2018-03-11T12:09:47.163Z,988.94
2018-03-11T12:11:48.862Z,988.93
2018-03-11T12:13:50.578Z,988.93
2018-03-11T12:15:52.282Z,988.94
2018-03-11T12:17:54.173Z,988.88
2018-03-11T12:19:55.805Z,988.93
2018-03-11T12:21:57.567Z,988.96
2018-03-11T12:23:59.783Z,988.91
2018-03-11T12:26:02.012Z,988.91
2018-03-11T12:28:04.409Z,988.95
2018-03-11T12:30:06.084Z,988.94
2018-03-11T12:32:07.854Z,988.91
2018-03-11T12:34:10.077Z,988.88
2018-03-11T12:36:11.811Z,988.83
2018-03-11T12:38:13.569Z,988.86
2018-03-11T12:40:15.358Z,988.88
2018-03-11T12:42:17.174Z,988.82
2018-03-11T12:44:18.904Z,988.88
2018-03-11T12:46:20.692Z,988.82
2018-03-11T12:48:22.378Z,988.79
2018-03-11T12:50:24.134Z,988.78
2018-03-11T12:52:25.903Z,988.70
2018-03-11T12:54:27.682Z,988.80
2018-03-11T12:56:29.950Z,988.78
2018-03-11T12:58:31.792Z,988.74
2018-03-11T13:00:33.561Z,988.77
2018-03-11T13:02:35.357Z,988.75
2018-03-11T13:04:37.076Z,988.67
2018-03-11T13:06:38.821Z,988.64
2018-03-11T13:08:40.588Z,988.63
2018-03-11T13:10:42.341Z,988.65
2018-03-11T13:12:45.015Z,988.68
2018-03-11T13:14:46.728Z,988.64
2018-03-11T13:16:48.463Z,988.70
2018-03-11T13:18:50.168Z,988.62
2018-03-11T13:20:52.578Z,988.59
2018-03-11T13:22:54.357Z,988.62
2018-03-11T13:24:56.380Z,988.57
2018-03-11T13:26:58.570Z,988.55
2018-03-11T13:29:00.315Z,988.61
2018-03-11T13:31:02.761Z,988.62
2018-03-11T13:33:04.699Z,988.65
2018-03-11T13:35:06.837Z,988.61
2018-03-11T13:37:10.425Z,988.60
2018-03-11T13:39:12.187Z,988.65
2018-03-11T13:41:14.022Z,988.72
2018-03-11T13:43:16.658Z,988.72
2018-03-11T13:45:18.362Z,988.71
2018-03-11T13:47:20.366Z,988.69
2018-03-11T13:49:22.552Z,988.74
2018-03-11T13:51:24.307Z,988.71
2018-03-11T13:53:25.985Z,988.68
2018-03-11T13:55:27.720Z,988.70
2018-03-11T13:57:29.792Z,988.70
2018-03-11T13:59:31.437Z,988.67
2018-03-11T14:01:33.106Z,988.69
2018-03-11T14:03:34.792Z,988.67
2018-03-11T14:05:36.979Z,988.65
2018-03-11T14:07:38.865Z,988.63
2018-03-11T14:09:40.665Z,988.59
2018-03-11T14:11:42.553Z,988.60
2018-03-11T14:13:44.178Z,988.63
2018-03-11T14:15:45.966Z,988.63
2018-03-11T14:17:48.116Z,988.63
2018-03-11T14:19:50.019Z,988.56
2018-03-11T14:21:51.982Z,988.55
2018-03-11T14:23:53.629Z,988.52
2018-03-11T14:25:55.401Z,988.48
2018-03-11T14:27:57.600Z,988.49
2018-03-11T14:29:59.366Z,988.49
2018-03-11T14:32:01.115Z,988.47
2018-03-11T14:34:03.435Z,988.49
2018-03-11T14:36:05.161Z,988.49
2018-03-11T14:38:06.919Z,988.50
2018-03-11T14:40:08.651Z,988.51
2018-03-11T14:42:10.496Z,988.46
2018-03-11T14:44:12.112Z,988.51
2018-03-11T14:46:13.770Z,988.55
2018-03-11T14:48:15.467Z,988.51
2018-03-11T14:50:17.189Z,988.47
2018-03-11T14:52:19.006Z,988.49
2018-03-11T14:54:21.278Z,988.54
2018-03-11T14:56:22.901Z,988.60
2018-03-11T14:58:24.582Z,988.69
2018-03-11T15:00:26.368Z,988.70
2018-03-11T15:02:28.704Z,988.75
2018-03-11T15:04:30.402Z,988.78
2018-03-11T15:06:32.101Z,988.76
2018-03-11T15:08:33.847Z,988.81
2018-03-11T15:10:35.549Z,988.86
2018-03-11T15:12:37.266Z,988.90
2018-03-11T15:14:38.938Z,988.88
2018-03-11T15:16:40.651Z,988.87
2018-03-11T15:18:42.535Z,988.90
2018-03-11T15:20:44.221Z,988.90
2018-03-11T15:22:45.837Z,988.86
2018-03-11T15:24:47.635Z,988.93
2018-03-11T15:26:49.305Z,988.97
2018-03-11T15:28:51.020Z,988.94
2018-03-11T15:30:52.810Z,988.95
2018-03-11T15:32:54.486Z,988.93
2018-03-11T15:34:56.270Z,988.93
2018-03-11T15:36:58.249Z,988.93
2018-03-11T15:38:59.972Z,988.85
2018-03-11T15:41:01.609Z,988.86
2018-03-11T15:43:03.320Z,988.86
2018-03-11T15:45:05.580Z,988.86
2018-03-11T15:47:07.309Z,988.84
2018-03-11T15:49:08.997Z,988.88
2018-03-11T15:51:10.774Z,988.88
2018-03-11T15:53:13.029Z,988.88
2018-03-11T15:55:14.817Z,988.86
2018-03-11T15:57:16.621Z,988.79
2018-03-11T15:59:18.430Z,988.81
2018-03-11T16:01:20.205Z,988.79
2018-03-11T16:03:21.910Z,988.83
2018-03-11T16:05:24.182Z,988.86
2018-03-11T16:07:26.250Z,988.92
2018-03-11T16:09:27.955Z,988.87
2018-03-11T16:11:30.226Z,988.87
2018-03-11T16:13:31.971Z,988.87
2018-03-11T16:15:33.713Z,988.85
2018-03-11T16:17:35.876Z,988.86
2018-03-11T16:19:37.926Z,988.82
2018-03-11T16:21:39.677Z,988.86
2018-03-11T16:23:41.368Z,988.84
2018-03-11T16:25:43.119Z,988.78
2018-03-11T16:27:44.870Z,988.77
2018-03-11T16:29:46.620Z,988.75
2018-03-11T16:31:48.362Z,988.81
2018-03-11T16:33:50.022Z,988.81
2018-03-11T16:35:52.625Z,988.83
2018-03-11T16:37:55.956Z,988.81
2018-03-11T16:39:58.863Z,988.90
2018-03-11T16:42:01.871Z,988.93
2018-03-11T16:44:03.764Z,988.90
2018-03-11T16:46:05.612Z,988.90
2018-03-11T16:48:07.350Z,988.94
2018-03-11T16:50:09.094Z,988.93
2018-03-11T16:52:10.830Z,988.93
2018-03-11T16:54:12.467Z,988.94
2018-03-11T16:56:14.163Z,988.99
2018-03-11T16:58:15.906Z,989.01
2018-03-11T17:00:17.668Z,989.03
2018-03-11T17:02:19.335Z,988.98
2018-03-11T17:04:21.617Z,989.01
2018-03-11T17:06:23.348Z,989.02
2018-03-11T17:08:25.050Z,989.00
2018-03-11T17:10:26.828Z,989.05
2018-03-11T17:12:28.505Z,989.01
2018-03-11T17:14:30.218Z,989.06
2018-03-11T17:16:31.975Z,989.05
2018-03-11T17:18:33.671Z,989.04
2018-03-11T17:20:35.362Z,989.05
2018-03-11T17:22:37.017Z,989.10
2018-03-11T17:24:38.757Z,989.11
2018-03-11T17:26:40.399Z,989.11
2018-03-11T17:28:42.217Z,989.08
2018-03-11T17:30:43.921Z,989.07
2018-03-11T17:32:45.683Z,989.07
2018-03-11T17:34:47.364Z,989.07
2018-03-11T17:36:49.633Z,989.13
2018-03-11T17:38:51.392Z,989.10
2018-03-11T17:40:52.983Z,989.17
2018-03-11T17:42:55.042Z,989.16
2018-03-11T17:44:57.282Z,989.15
2018-03-11T17:46:59.132Z,989.14
2018-03-11T17:49:00.826Z,989.15
2018-03-11T17:51:02.513Z,989.15
2018-03-11T17:53:04.746Z,989.12
2018-03-11T17:55:06.395Z,989.14
2018-03-11T17:57:08.024Z,989.13
2018-03-11T17:59:09.748Z,989.16
2018-03-11T18:01:12.275Z,989.20
2018-03-11T18:03:13.813Z,989.20
2018-03-11T18:05:15.605Z,989.18
2018-03-11T18:07:17.232Z,989.18
2018-03-11T18:09:18.929Z,989.24
2018-03-11T18:11:20.552Z,989.23
2018-03-11T18:13:22.209Z,989.26
2018-03-11T18:15:23.921Z,989.25
2018-03-11T18:17:25.651Z,989.32
2018-03-11T18:19:27.945Z,989.32
2018-03-11T18:21:29.713Z,989.36
2018-03-11T18:23:31.444Z,989.32
2018-03-11T18:25:33.804Z,989.35
2018-03-11T18:27:36.123Z,989.34
2018-03-11T18:29:37.774Z,989.30
2018-03-11T18:31:40.719Z,989.33
2018-03-11T18:33:43.093Z,989.26
2018-03-11T18:35:45.685Z,989.31
2018-03-11T18:37:47.313Z,989.32
2018-03-11T18:39:48.935Z,989.30
2018-03-11T18:41:50.600Z,989.28
2018-03-11T18:43:52.359Z,989.25
2018-03-11T18:45:53.982Z,989.29
2018-03-11T18:47:56.244Z,989.29
2018-03-11T18:49:58.018Z,989.31
2018-03-11T18:52:00.483Z,989.27
2018-03-11T18:54:02.110Z,989.27
2018-03-11T18:56:03.849Z,989.20
2018-03-11T18:58:05.527Z,989.20
2018-03-11T19:00:08.099Z,989.23
2018-03-11T19:02:10.398Z,989.21
2018-03-11T19:04:13.633Z,989.22
2018-03-11T19:06:15.396Z,989.22
2018-03-11T19:08:17.740Z,989.22
2018-03-11T19:10:19.393Z,989.23
2018-03-11T19:12:21.721Z,989.27
2018-03-11T19:14:24.571Z,989.24
2018-03-11T19:16:26.300Z,989.24
2018-03-11T19:18:27.960Z,989.22
2018-03-11T19:20:30.336Z,989.18
2018-03-11T19:22:32.709Z,989.13
2018-03-11T19:24:36.133Z,989.13
2018-03-11T19:26:38.321Z,989.08
2018-03-11T19:28:41.615Z,989.01
2018-03-11T19:30:45.685Z,989.03
2018-03-11T19:32:49.271Z,989.00
2018-03-11T19:34:51.342Z,988.98
2018-03-11T19:36:55.731Z,989.00
2018-03-11T19:38:58.784Z,989.02
2018-03-11T19:41:02.389Z,989.02
2018-03-11T19:43:08.719Z,988.96
2018-03-11T19:45:12.761Z,988.97
2018-03-11T19:47:15.390Z,988.94
2018-03-11T19:49:22.139Z,988.95
2018-03-11T19:51:25.783Z,988.90
2018-03-11T19:53:28.171Z,988.89
2018-03-11T19:55:32.135Z,988.87
2018-03-11T19:57:38.647Z,988.91
2018-03-11T19:59:42.382Z,988.87
2018-03-11T20:01:46.925Z,988.84
2018-03-11T20:03:50.093Z,988.80
2018-03-11T20:05:53.102Z,988.73
2018-03-11T20:07:59.303Z,988.73
2018-03-11T20:10:08.223Z,988.70
2018-03-11T20:12:12.827Z,988.74
2018-03-11T20:14:17.230Z,988.77
2018-03-11T20:16:23.269Z,988.78
2018-03-11T20:18:27.809Z,988.79
2018-03-11T20:20:31.439Z,988.77
2018-03-11T20:22:35.294Z,988.70
2018-03-11T20:24:40.244Z,988.72
2018-03-11T20:26:46.213Z,988.75
2018-03-11T20:28:53.645Z,988.72
2018-03-11T20:30:59.347Z,988.76
2018-03-11T20:33:10.340Z,988.79
2018-03-11T20:35:15.017Z,988.76
2018-03-11T20:37:18.035Z,988.75
2018-03-11T20:39:21.007Z,988.77
2018-03-11T20:41:25.366Z,988.82
2018-03-11T20:43:30.421Z,988.84
2018-03-11T20:45:32.085Z,988.85
2018-03-11T20:47:35.110Z,988.87
2018-03-11T20:49:37.569Z,988.80
2018-03-11T20:51:40.961Z,988.82
2018-03-11T20:53:45.205Z,988.82
2018-03-11T20:55:49.145Z,988.87
2018-03-11T20:57:51.436Z,988.84
2018-03-11T20:59:53.798Z,988.88
2018-03-11T21:01:55.433Z,988.83
2018-03-11T21:03:59.267Z,988.83
2018-03-11T21:06:02.517Z,988.85
2018-03-11T21:08:05.013Z,988.85
2018-03-11T21:10:06.627Z,988.84
2018-03-11T21:12:08.363Z,988.85
2018-03-11T21:14:10.056Z,988.83
2018-03-11T21:16:12.567Z,988.81
2018-03-11T21:18:14.275Z,988.85
2018-03-11T21:20:15.934Z,988.84
2018-03-11T21:22:18.483Z,988.80
2018-03-11T21:24:20.925Z,988.83
2018-03-11T21:26:23.260Z,988.85
2018-03-11T21:28:24.949Z,988.83
2018-03-11T21:30:26.727Z,988.84
2018-03-11T21:32:28.442Z,988.84
2018-03-11T21:34:30.199Z,988.81
2018-03-11T21:36:31.832Z,988.86
2018-03-11T21:38:33.634Z,988.84
2018-03-11T21:40:35.323Z,988.88
2018-03-11T21:42:37.532Z,988.86
2018-03-11T21:44:39.299Z,988.88
2018-03-11T21:46:41.045Z,988.84
2018-03-11T21:48:43.321Z,988.88
2018-03-11T21:50:45.633Z,988.86
2018-03-11T21:52:47.309Z,988.86
2018-03-11T21:54:49.549Z,988.84
2018-03-11T21:56:51.266Z,988.86
2018-03-11T21:58:52.930Z,988.85
2018-03-11T22:00:54.598Z,988.84
2018-03-11T22:02:56.508Z,988.80
2018-03-11T22:04:58.254Z,988.83
2018-03-11T22:07:00.042Z,988.82
2018-03-11T22:09:01.718Z,988.84
2018-03-11T22:11:03.480Z,988.82
2018-03-11T22:13:05.151Z,988.83
2018-03-11T22:15:06.932Z,988.83
2018-03-11T22:17:08.593Z,988.83
2018-03-11T22:19:10.836Z,988.86
2018-03-11T22:21:12.982Z,988.83
2018-03-11T22:23:14.666Z,988.84
2018-03-11T22:25:16.351Z,988.83
2018-03-11T22:27:18.024Z,988.80
2018-03-11T22:29:19.618Z,988.76
2018-03-11T22:31:22.027Z,988.73
2018-03-11T22:33:23.941Z,988.69
2018-03-11T22:35:25.733Z,988.66
2018-03-11T22:37:27.404Z,988.68
2018-03-11T22:39:29.031Z,988.63
2018-03-11T22:41:31.422Z,988.64
2018-03-11T22:43:33.805Z,988.58
2018-03-11T22:45:36.139Z,988.58
2018-03-11T22:47:37.904Z,988.65
2018-03-11T22:49:40.442Z,988.57
2018-03-11T22:51:42.059Z,988.57
2018-03-11T22:53:43.856Z,988.53
2018-03-11T22:55:45.590Z,988.48
2018-03-11T22:57:47.273Z,988.44
2018-03-11T22:59:48.940Z,988.44
2018-03-11T23:01:50.558Z,988.44
2018-03-11T23:03:52.402Z,988.47
2018-03-11T23:05:54.064Z,988.47
2018-03-11T23:07:55.777Z,988.49
2018-03-11T23:09:57.540Z,988.47
2018-03-11T23:11:59.153Z,988.45
2018-03-11T23:14:00.886Z,988.48
2018-03-11T23:16:03.179Z,988.43
2018-03-11T23:18:05.459Z,988.41
2018-03-11T23:20:07.123Z,988.36
2018-03-11T23:22:08.840Z,988.30
2018-03-11T23:24:10.527Z,988.29
2018-03-11T23:26:12.255Z,988.29
2018-03-11T23:28:14.485Z,988.22
2018-03-11T23:30:16.202Z,988.29
2018-03-11T23:32:18.021Z,988.24
2018-03-11T23:34:19.749Z,988.23
2018-03-11T23:36:21.537Z,988.19
2018-03-11T23:38:23.371Z,988.14
2018-03-11T23:40:25.023Z,988.13
2018-03-11T23:42:26.820Z,988.18
2018-03-11T23:44:28.517Z,988.15
2018-03-11T23:46:30.292Z,988.16
2018-03-11T23:48:32.144Z,988.17
2018-03-11T23:50:33.806Z,988.15
2018-03-11T23:52:36.188Z,988.15
2018-03-11T23:54:37.701Z,988.10
2018-03-11T23:56:39.418Z,988.18
2018-03-11T23:58:41.088Z,988.11
